Terminal Aerodrome Forecast
Issued by NWS Twin Cities, MN

Home | Current Version | Previous Version | Graphics & Text | Print | Product List | Glossary On
Versions: 1 2 3 4 5 6 7 8 9 10 11 12 13 14
275
FTUS43 KMPX 201729
TAFSTC
TAF
KSTC 201729Z 2018/2118 33009KT P6SM FEW045 FEW250
     FM210100 33004KT P6SM FEW250
     FM211600 16008KT P6SM BKN110=

USA.gov is the U.S. government's official web portal to all federal, state and local government web resources and services.